createdAt,value
2023-02-27T00:01:35.130Z,93737.00
2023-02-27T00:03:36.757Z,93738.34
2023-02-27T00:05:38.370Z,93740.53
2023-02-27T00:07:40.051Z,93740.69
2023-02-27T00:09:42.168Z,93749.63
2023-02-27T00:11:43.874Z,93740.41
2023-02-27T00:13:45.566Z,93745.94
2023-02-27T00:15:48.400Z,93750.44
2023-02-27T00:17:50.042Z,93742.53
2023-02-27T00:19:51.706Z,93738.47
2023-02-27T00:21:53.305Z,93757.94
2023-02-27T00:23:55.479Z,93739.75
2023-02-27T00:25:57.156Z,93753.09
2023-02-27T00:27:59.012Z,93758.97
2023-02-27T00:30:01.183Z,93739.97
2023-02-27T00:32:03.019Z,93728.41
2023-02-27T00:34:04.716Z,93734.63
2023-02-27T00:36:06.605Z,93737.66
2023-02-27T00:38:08.263Z,93741.88
2023-02-27T00:40:11.517Z,93752.38
2023-02-27T00:42:13.148Z,93757.84
2023-02-27T00:44:14.775Z,93744.00
2023-02-27T00:46:16.429Z,93742.88
2023-02-27T00:48:18.180Z,93738.19
2023-02-27T00:50:19.809Z,93742.94
2023-02-27T00:52:21.526Z,93749.31
2023-02-27T00:54:23.123Z,93742.63
2023-02-27T00:56:24.725Z,93749.88
2023-02-27T00:58:26.418Z,93752.31
2023-02-27T01:00:28.509Z,93749.47
2023-02-27T01:02:30.213Z,93749.56
2023-02-27T01:04:32.151Z,93738.00
2023-02-27T01:06:33.730Z,93737.09
2023-02-27T01:08:35.395Z,93735.75
2023-02-27T01:10:37.098Z,93735.75
2023-02-27T01:12:39.035Z,93747.72
2023-02-27T01:14:40.837Z,93742.50
2023-02-27T01:16:42.577Z,93741.03
2023-02-27T01:18:44.365Z,93738.75
2023-02-27T01:20:45.992Z,93736.66
2023-02-27T01:22:47.648Z,93741.53
2023-02-27T01:24:49.264Z,93738.00
2023-02-27T01:26:52.654Z,93738.44
2023-02-27T01:28:54.600Z,93744.31
2023-02-27T01:30:56.267Z,93760.19
2023-02-27T01:32:57.861Z,93751.78
2023-02-27T01:34:59.716Z,93751.28
2023-02-27T01:37:01.367Z,93760.69
2023-02-27T01:39:03.102Z,93768.97
2023-02-27T01:41:07.287Z,93768.25
2023-02-27T01:43:22.175Z,93788.53
2023-02-27T01:45:31.583Z,93806.41
2023-02-27T01:47:33.255Z,93817.44
2023-02-27T01:49:34.955Z,93822.34
2023-02-27T01:51:39.941Z,93808.03
2023-02-27T01:53:43.146Z,93812.03
2023-02-27T01:55:45.867Z,93812.78
2023-02-27T01:57:48.006Z,93817.56
2023-02-27T01:59:49.640Z,93800.19
2023-02-27T02:01:51.714Z,93807.53
2023-02-27T02:04:08.411Z,93834.88
2023-02-27T02:06:10.262Z,93829.84
2023-02-27T02:08:14.737Z,93821.59
2023-02-27T02:10:17.867Z,93843.75
2023-02-27T02:12:22.974Z,93860.06
2023-02-27T02:14:24.616Z,93881.00
2023-02-27T02:16:54.822Z,93872.03
2023-02-27T02:19:33.705Z,93931.78
2023-02-27T02:22:09.090Z,94021.75
2023-02-27T02:24:23.315Z,94022.88
2023-02-27T02:26:33.174Z,94012.53
2023-02-27T02:28:58.096Z,94026.53
2023-02-27T02:30:59.568Z,94021.34
2023-02-27T02:33:48.637Z,94013.22
2023-02-27T02:36:17.624Z,93984.41
2023-02-27T02:38:28.261Z,93971.50
2023-02-27T02:40:56.006Z,93981.16
2023-02-27T02:43:37.918Z,93982.06
2023-02-27T02:45:53.825Z,93990.19
2023-02-27T02:48:46.282Z,93996.91
2023-02-27T02:51:01.738Z,94025.97
2023-02-27T02:53:19.076Z,94029.47
2023-02-27T02:55:34.798Z,94033.47
2023-02-27T02:58:18.262Z,94028.19
2023-02-27T03:00:24.051Z,94029.19
2023-02-27T03:02:28.658Z,94052.75
2023-02-27T03:04:54.059Z,94060.72
2023-02-27T03:07:34.312Z,94052.00
2023-02-27T03:09:45.589Z,94061.53
2023-02-27T03:11:49.252Z,94064.69
2023-02-27T03:13:54.973Z,94075.16
2023-02-27T03:16:25.420Z,94068.31
2023-02-27T03:18:32.769Z,94101.53
2023-02-27T03:20:38.194Z,94091.31
2023-02-27T03:22:42.907Z,94093.34
2023-02-27T03:24:50.815Z,94103.00
2023-02-27T03:26:54.566Z,94103.19
2023-02-27T03:29:04.412Z,94107.25
2023-02-27T03:31:14.392Z,94128.53
2023-02-27T03:33:21.128Z,94127.41
2023-02-27T03:35:25.701Z,94136.56
2023-02-27T03:37:50.812Z,94149.72
2023-02-27T03:40:01.705Z,94156.88
2023-02-27T03:42:32.106Z,94155.13
2023-02-27T03:44:50.488Z,94158.81
2023-02-27T03:46:53.215Z,94163.22
2023-02-27T03:48:54.814Z,94171.56
2023-02-27T03:50:56.777Z,94173.94
2023-02-27T03:52:58.476Z,94180.41
2023-02-27T03:55:04.434Z,94180.97
2023-02-27T03:57:07.713Z,94181.38
2023-02-27T03:59:09.402Z,94193.50
2023-02-27T04:01:11.735Z,94185.03
2023-02-27T04:03:13.403Z,94193.38
2023-02-27T04:05:15.045Z,94199.41
2023-02-27T04:07:48.832Z,94191.91
2023-02-27T04:10:14.524Z,94196.31
2023-02-27T04:12:22.000Z,94210.19
2023-02-27T04:14:30.682Z,94213.41
2023-02-27T04:17:11.120Z,94215.34
2023-02-27T04:19:24.532Z,94226.34
2023-02-27T04:21:57.098Z,94233.00
2023-02-27T04:24:14.003Z,94243.53
2023-02-27T04:26:58.934Z,94242.44
2023-02-27T04:29:15.595Z,94252.25
2023-02-27T04:31:24.766Z,94254.44
2023-02-27T04:33:49.084Z,94266.06
2023-02-27T04:35:59.433Z,94268.72
2023-02-27T04:38:05.213Z,94273.63
2023-02-27T04:40:10.058Z,94279.19
2023-02-27T04:42:36.032Z,94291.25
2023-02-27T04:44:38.689Z,94299.59
2023-02-27T04:46:42.744Z,94301.31
2023-02-27T04:48:57.744Z,94301.75
2023-02-27T04:51:17.733Z,94307.69
2023-02-27T04:53:24.724Z,94311.84
2023-02-27T04:55:35.987Z,94311.97
2023-02-27T04:57:41.370Z,94314.22
2023-02-27T04:59:46.757Z,94306.13
2023-02-27T05:02:03.508Z,94314.13
2023-02-27T05:04:07.802Z,94317.81
2023-02-27T05:06:10.845Z,94318.94
2023-02-27T05:08:18.428Z,94331.44
2023-02-27T05:10:47.147Z,94331.31
2023-02-27T05:12:52.117Z,94337.06
2023-02-27T05:15:14.314Z,94339.72
2023-02-27T05:17:20.774Z,94338.06
2023-02-27T05:19:22.715Z,94346.50
2023-02-27T05:21:37.098Z,94345.22
2023-02-27T05:24:07.004Z,94344.69
2023-02-27T05:26:16.714Z,94344.41
2023-02-27T05:28:23.782Z,94350.97
2023-02-27T05:30:27.298Z,94354.59
2023-02-27T05:32:33.926Z,94356.03
2023-02-27T05:34:39.818Z,94366.88
2023-02-27T05:36:46.864Z,94370.97
2023-02-27T05:38:51.820Z,94374.34
2023-02-27T05:41:02.286Z,94377.69
2023-02-27T05:43:11.208Z,94382.34
2023-02-27T05:45:26.121Z,94380.72
2023-02-27T05:47:29.747Z,94384.22
2023-02-27T05:49:34.826Z,94384.59
2023-02-27T05:51:38.113Z,94383.13
2023-02-27T05:53:44.422Z,94383.03
2023-02-27T05:55:59.034Z,94382.44
2023-02-27T05:58:15.450Z,94386.34
2023-02-27T06:00:19.775Z,94390.31
2023-02-27T06:02:21.515Z,94389.78
2023-02-27T06:04:23.173Z,94396.94
2023-02-27T06:06:24.890Z,94395.91
2023-02-27T06:08:27.187Z,94404.72
2023-02-27T06:10:28.925Z,94410.06
2023-02-27T06:12:30.579Z,94417.47
2023-02-27T06:14:32.168Z,94411.22
2023-02-27T06:16:38.143Z,94426.94
2023-02-27T06:18:39.788Z,94430.25
2023-02-27T06:20:41.904Z,94423.22
2023-02-27T06:22:43.663Z,94421.56
2023-02-27T06:24:45.793Z,94419.75
2023-02-27T06:26:47.449Z,94422.50
2023-02-27T06:28:48.994Z,94425.13
2023-02-27T06:30:55.143Z,94425.91
2023-02-27T06:32:56.901Z,94426.94
2023-02-27T06:34:58.458Z,94427.91
2023-02-27T06:37:00.635Z,94431.94
2023-02-27T06:39:04.949Z,94440.84
2023-02-27T06:41:06.526Z,94435.53
2023-02-27T06:43:08.432Z,94439.44
2023-02-27T06:45:12.160Z,94444.84
2023-02-27T06:47:13.859Z,94457.81
2023-02-27T06:49:15.566Z,94468.34
2023-02-27T06:51:17.300Z,94463.91
2023-02-27T06:53:18.885Z,94466.56
2023-02-27T06:55:22.729Z,94471.38
2023-02-27T06:57:24.419Z,94472.56
2023-02-27T06:59:26.017Z,94467.81
2023-02-27T07:01:27.618Z,94468.13
2023-02-27T07:03:29.289Z,94464.03
2023-02-27T07:05:31.886Z,94465.25
2023-02-27T07:07:37.918Z,94462.31
2023-02-27T07:09:40.420Z,94462.13
2023-02-27T07:11:42.132Z,94457.47
2023-02-27T07:13:43.917Z,94462.63
2023-02-27T07:15:45.642Z,94458.94
2023-02-27T07:17:47.316Z,94467.19
2023-02-27T07:19:48.955Z,94466.00
2023-02-27T07:21:51.120Z,94472.63
2023-02-27T07:23:52.775Z,94472.91
2023-02-27T07:25:54.447Z,94468.63
2023-02-27T07:27:56.227Z,94478.38
2023-02-27T07:29:58.314Z,94482.22
2023-02-27T07:32:01.596Z,94486.72
2023-02-27T07:34:03.432Z,94494.41
2023-02-27T07:36:05.306Z,94492.84
2023-02-27T07:38:07.007Z,94484.09
2023-02-27T07:40:09.436Z,94484.97
2023-02-27T07:42:11.579Z,94491.75
2023-02-27T07:44:13.676Z,94486.00
2023-02-27T07:46:15.334Z,94497.97
2023-02-27T07:48:17.007Z,94493.88
2023-02-27T07:50:19.041Z,94486.28
2023-02-27T07:52:20.637Z,94490.50
2023-02-27T07:54:22.212Z,94481.69
2023-02-27T07:56:24.319Z,94477.72
2023-02-27T07:58:26.007Z,94490.50
2023-02-27T08:00:27.699Z,94485.22
2023-02-27T08:02:29.338Z,94498.53
2023-02-27T08:04:31.101Z,94492.28
2023-02-27T08:06:32.760Z,94488.50
2023-02-27T08:08:35.353Z,94487.88
2023-02-27T08:10:36.991Z,94494.19
2023-02-27T08:12:39.403Z,94494.63
2023-02-27T08:14:41.047Z,94497.59
2023-02-27T08:16:42.719Z,94496.38
2023-02-27T08:18:44.323Z,94501.69
2023-02-27T08:20:45.949Z,94498.31
2023-02-27T08:22:47.480Z,94492.84
2023-02-27T08:24:49.051Z,94504.25
2023-02-27T08:26:50.755Z,94501.50
2023-02-27T08:28:52.408Z,94512.44
2023-02-27T08:30:55.105Z,94500.13
2023-02-27T08:32:56.711Z,94510.59
2023-02-27T08:34:58.315Z,94501.56
2023-02-27T08:36:59.990Z,94505.25
2023-02-27T08:39:01.645Z,94501.22
2023-02-27T08:41:03.657Z,94501.91
2023-02-27T08:43:05.261Z,94503.66
2023-02-27T08:45:09.366Z,94498.72
2023-02-27T08:47:11.078Z,94501.31
2023-02-27T08:49:13.015Z,94489.97
2023-02-27T08:51:14.722Z,94492.75
2023-02-27T08:53:16.353Z,94503.06
2023-02-27T08:55:18.060Z,94500.44
2023-02-27T08:57:19.626Z,94499.66
2023-02-27T08:59:21.332Z,94506.13
2023-02-27T09:01:23.069Z,94513.59
2023-02-27T09:03:28.709Z,94514.94
2023-02-27T09:05:30.547Z,94510.78
2023-02-27T09:07:33.287Z,94524.97
2023-02-27T09:09:34.946Z,94532.91
2023-02-27T09:11:38.670Z,94531.41
2023-02-27T09:13:40.798Z,94532.03
2023-02-27T09:15:42.500Z,94533.66
2023-02-27T09:17:44.144Z,94531.00
2023-02-27T09:19:45.813Z,94538.78
2023-02-27T09:21:47.413Z,94535.41
2023-02-27T09:23:49.112Z,94542.19
2023-02-27T09:25:50.805Z,94539.88
2023-02-27T09:27:52.509Z,94548.72
2023-02-27T09:29:55.958Z,94541.47
2023-02-27T09:31:57.739Z,94553.16
2023-02-27T09:34:01.604Z,94539.31
2023-02-27T09:36:03.716Z,94540.31
2023-02-27T09:38:05.626Z,94541.88
2023-02-27T09:40:08.169Z,94546.72
2023-02-27T09:42:19.811Z,94544.13
2023-02-27T09:44:36.448Z,94540.53
2023-02-27T09:46:45.406Z,94537.31
2023-02-27T09:48:52.751Z,94541.50
2023-02-27T09:50:54.475Z,94554.25
2023-02-27T09:52:56.153Z,94553.97
2023-02-27T09:55:00.642Z,94556.88
2023-02-27T09:57:05.537Z,94565.16
2023-02-27T09:59:28.480Z,94558.03
2023-02-27T10:01:37.206Z,94563.81
2023-02-27T10:03:57.037Z,94566.63
2023-02-27T10:06:12.450Z,94571.16
2023-02-27T10:08:17.715Z,94565.75
2023-02-27T10:10:52.434Z,94563.84
2023-02-27T10:13:03.948Z,94569.75
2023-02-27T10:15:24.508Z,94575.41
2023-02-27T10:17:31.036Z,94578.44
2023-02-27T10:19:35.651Z,94574.25
2023-02-27T10:21:44.370Z,94571.16
2023-02-27T10:24:23.889Z,94577.97
2023-02-27T10:26:30.301Z,94570.47
2023-02-27T10:28:33.283Z,94569.50
2023-02-27T10:30:35.334Z,94561.94
2023-02-27T10:32:38.767Z,94557.03
2023-02-27T10:34:42.491Z,94568.69
2023-02-27T10:36:46.117Z,94557.84
2023-02-27T10:38:54.286Z,94549.97
2023-02-27T10:40:57.992Z,94558.69
2023-02-27T10:43:01.508Z,94556.88
2023-02-27T10:45:04.862Z,94554.75
2023-02-27T10:47:06.449Z,94559.19
2023-02-27T10:49:19.727Z,94563.75
2023-02-27T10:51:32.697Z,94556.69
2023-02-27T10:53:35.005Z,94555.97
2023-02-27T10:55:38.413Z,94554.91
2023-02-27T10:57:42.665Z,94548.31
2023-02-27T10:59:52.494Z,94555.50
2023-02-27T11:02:17.019Z,94559.47
2023-02-27T11:04:39.225Z,94561.84
2023-02-27T11:06:42.043Z,94554.63
2023-02-27T11:08:43.946Z,94558.50
2023-02-27T11:11:00.143Z,94554.94
2023-02-27T11:13:05.039Z,94557.19
2023-02-27T11:15:15.748Z,94560.66
2023-02-27T11:17:23.068Z,94549.34
2023-02-27T11:19:38.955Z,94540.16
2023-02-27T11:21:40.539Z,94528.78
2023-02-27T11:23:51.999Z,94537.28
2023-02-27T11:26:10.532Z,94543.47
2023-02-27T11:28:23.112Z,94533.00
2023-02-27T11:30:31.943Z,94534.03
2023-02-27T11:32:43.325Z,94529.31
2023-02-27T11:34:50.612Z,94528.22
2023-02-27T11:36:56.031Z,94524.13
2023-02-27T11:38:57.633Z,94538.84
2023-02-27T11:41:05.332Z,94532.47
2023-02-27T11:43:30.468Z,94538.69
2023-02-27T11:46:11.942Z,94530.53
2023-02-27T11:48:02.642Z,94524.63
2023-02-27T11:50:13.366Z,94529.38
2023-02-27T11:52:24.318Z,94533.28
2023-02-27T11:54:39.039Z,94536.84
2023-02-27T11:57:04.809Z,94532.41
2023-02-27T11:59:12.594Z,94524.78
2023-02-27T12:01:34.941Z,94526.63
2023-02-27T12:03:55.402Z,94523.63
2023-02-27T12:06:15.349Z,94522.41
2023-02-27T12:08:32.413Z,94523.88
2023-02-27T12:10:50.145Z,94518.28
2023-02-27T12:12:55.666Z,94519.06
2023-02-27T12:15:15.880Z,94515.09
2023-02-27T12:17:23.567Z,94525.75
2023-02-27T12:19:47.328Z,94523.28
2023-02-27T12:21:59.823Z,94507.97
2023-02-27T12:24:13.505Z,94509.44
2023-02-27T12:26:34.452Z,94511.06
2023-02-27T12:28:50.111Z,94520.59
2023-02-27T12:31:07.607Z,94532.53
2023-02-27T12:33:11.779Z,94523.81
2023-02-27T12:35:17.498Z,94517.44
2023-02-27T12:37:24.989Z,94500.78
2023-02-27T12:39:28.739Z,94508.88
2023-02-27T12:41:38.299Z,94505.56
2023-02-27T12:43:46.008Z,94507.56
2023-02-27T12:46:21.703Z,94516.28
2023-02-27T12:48:52.339Z,94508.78
2023-02-27T12:51:21.470Z,94506.91
2023-02-27T12:53:49.453Z,94515.16
2023-02-27T12:55:58.596Z,94516.97
2023-02-27T12:58:20.697Z,94495.94
2023-02-27T13:00:26.781Z,94502.53
2023-02-27T13:02:57.289Z,94516.47
2023-02-27T13:05:01.629Z,94509.09
2023-02-27T13:07:12.383Z,94522.53
2023-02-27T13:09:27.619Z,94521.56
2023-02-27T13:12:06.907Z,94506.72
2023-02-27T13:14:37.640Z,94512.94
2023-02-27T13:16:44.820Z,94518.41
2023-02-27T13:19:20.694Z,94515.38
2023-02-27T13:21:22.359Z,94512.88
2023-02-27T13:23:28.174Z,94519.47
2023-02-27T13:25:30.918Z,94517.94
2023-02-27T13:27:36.460Z,94521.09
2023-02-27T13:29:47.681Z,94522.72
2023-02-27T13:32:10.134Z,94520.38
2023-02-27T13:34:14.842Z,94509.50
2023-02-27T13:36:24.480Z,94500.94
2023-02-27T13:38:47.608Z,94496.34
2023-02-27T13:40:49.229Z,94506.63
2023-02-27T13:42:53.161Z,94512.84
2023-02-27T13:44:56.615Z,94517.56
2023-02-27T13:47:30.035Z,94526.03
2023-02-27T13:49:42.494Z,94538.19
2023-02-27T13:51:46.461Z,94547.09
2023-02-27T13:53:48.112Z,94545.38
2023-02-27T13:55:52.695Z,94548.06
2023-02-27T13:57:57.404Z,94553.41
2023-02-27T14:00:02.045Z,94545.63
2023-02-27T14:02:32.665Z,94558.19
2023-02-27T14:04:37.116Z,94556.44
2023-02-27T14:06:44.715Z,94553.63
2023-02-27T14:08:50.312Z,94563.78
2023-02-27T14:11:12.994Z,94549.63
2023-02-27T14:13:45.507Z,94550.97
2023-02-27T14:15:47.191Z,94555.84
2023-02-27T14:17:54.634Z,94560.91
2023-02-27T14:20:05.294Z,94562.88
2023-02-27T14:22:16.181Z,94558.28
2023-02-27T14:24:25.433Z,94572.44
2023-02-27T14:26:28.432Z,94569.47
2023-02-27T14:28:34.303Z,94587.09
2023-02-27T14:30:40.739Z,94589.09
2023-02-27T14:32:42.591Z,94578.09
2023-02-27T14:34:44.245Z,94585.59
2023-02-27T14:36:51.903Z,94612.78
2023-02-27T14:38:57.504Z,94615.91
2023-02-27T14:41:12.184Z,94608.53
2023-02-27T14:43:32.067Z,94588.63
2023-02-27T14:45:33.728Z,94578.72
2023-02-27T14:47:37.177Z,94590.25
2023-02-27T14:49:42.098Z,94589.41
2023-02-27T14:51:43.946Z,94599.97
2023-02-27T14:53:45.821Z,94605.66
2023-02-27T14:55:53.943Z,94627.25
2023-02-27T14:58:01.113Z,94625.94
2023-02-27T15:00:50.768Z,94620.19
2023-02-27T15:02:52.354Z,94610.97
2023-02-27T15:05:15.967Z,94625.31
2023-02-27T15:07:26.767Z,94649.06
2023-02-27T15:09:36.057Z,94656.44
2023-02-27T15:11:41.174Z,94667.09
2023-02-27T15:13:44.569Z,94652.13
2023-02-27T15:15:46.243Z,94659.34
2023-02-27T15:18:07.000Z,94664.13
2023-02-27T15:20:25.719Z,94660.84
2023-02-27T15:22:39.176Z,94649.69
2023-02-27T15:24:50.346Z,94651.66
2023-02-27T15:26:56.190Z,94644.22
2023-02-27T15:29:00.919Z,94639.78
2023-02-27T15:31:02.684Z,94650.03
2023-02-27T15:33:04.413Z,94660.56
2023-02-27T15:35:19.656Z,94662.63
2023-02-27T15:37:26.225Z,94662.41
2023-02-27T15:39:30.782Z,94666.28
2023-02-27T15:41:32.921Z,94675.94
2023-02-27T15:43:34.571Z,94671.16
2023-02-27T15:45:36.636Z,94686.44
2023-02-27T15:47:39.309Z,94692.72
2023-02-27T15:49:40.994Z,94702.59
2023-02-27T15:51:42.737Z,94706.25
2023-02-27T15:53:49.861Z,94719.66
2023-02-27T15:55:52.892Z,94726.25
2023-02-27T15:58:02.873Z,94741.31
2023-02-27T16:00:07.086Z,94736.63
2023-02-27T16:02:22.448Z,94740.69
2023-02-27T16:04:25.668Z,94756.09
2023-02-27T16:06:35.002Z,94752.34
2023-02-27T16:08:37.561Z,94759.44
2023-02-27T16:10:43.703Z,94748.25
2023-02-27T16:12:46.414Z,94760.09
2023-02-27T16:14:48.720Z,94765.97
2023-02-27T16:16:54.979Z,94757.97
2023-02-27T16:19:02.900Z,94751.19
2023-02-27T16:21:16.049Z,94752.16
2023-02-27T16:23:27.480Z,94763.56
2023-02-27T16:25:29.215Z,94761.66
2023-02-27T16:27:31.916Z,94756.97
2023-02-27T16:29:44.171Z,94762.25
2023-02-27T16:31:52.176Z,94767.16
2023-02-27T16:33:55.941Z,94765.44
2023-02-27T16:36:18.225Z,94759.41
2023-02-27T16:38:19.817Z,94759.81
2023-02-27T16:40:23.287Z,94762.97
2023-02-27T16:42:25.029Z,94762.56
2023-02-27T16:44:26.874Z,94778.31
2023-02-27T16:46:28.822Z,94765.78
2023-02-27T16:48:30.627Z,94765.75
2023-02-27T16:50:36.071Z,94758.97
2023-02-27T16:52:37.706Z,94757.66
2023-02-27T16:54:39.325Z,94758.19
2023-02-27T16:56:41.436Z,94759.81
2023-02-27T16:58:43.291Z,94761.13
2023-02-27T17:00:45.122Z,94781.84
2023-02-27T17:02:49.576Z,94783.75
2023-02-27T17:04:52.279Z,94795.50
2023-02-27T17:06:55.237Z,94789.84
2023-02-27T17:08:58.048Z,94781.88
2023-02-27T17:10:59.712Z,94784.59
2023-02-27T17:13:01.428Z,94781.03
2023-02-27T17:15:03.894Z,94791.06
2023-02-27T17:17:05.743Z,94792.66
2023-02-27T17:19:08.045Z,94779.34
2023-02-27T17:21:09.770Z,94782.78
2023-02-27T17:23:13.507Z,94793.41
2023-02-27T17:25:16.017Z,94798.75
2023-02-27T17:27:17.598Z,94801.06
2023-02-27T17:29:19.523Z,94805.28
2023-02-27T17:31:23.167Z,94792.47
2023-02-27T17:33:24.822Z,94794.66
2023-02-27T17:35:26.791Z,94795.63
2023-02-27T17:37:28.478Z,94793.69
2023-02-27T17:39:30.100Z,94796.69
2023-02-27T17:41:32.256Z,94790.34
2023-02-27T17:43:33.859Z,94800.47
2023-02-27T17:45:35.468Z,94793.81
2023-02-27T17:47:37.596Z,94797.34
2023-02-27T17:49:39.364Z,94802.53
2023-02-27T17:51:41.016Z,94801.91
2023-02-27T17:53:43.276Z,94807.66
2023-02-27T17:55:44.887Z,94810.25
2023-02-27T17:57:46.483Z,94808.47
2023-02-27T17:59:48.078Z,94811.47
2023-02-27T18:01:49.703Z,94814.03
2023-02-27T18:03:52.758Z,94820.63
2023-02-27T18:05:54.678Z,94829.31
2023-02-27T18:07:56.354Z,94822.88
2023-02-27T18:09:58.362Z,94823.03
2023-02-27T18:12:00.118Z,94813.88
2023-02-27T18:14:01.786Z,94812.50
2023-02-27T18:16:03.522Z,94821.69
2023-02-27T18:18:05.168Z,94826.34
2023-02-27T18:20:07.636Z,94819.09
2023-02-27T18:22:10.522Z,94810.03
2023-02-27T18:24:12.134Z,94816.75
2023-02-27T18:26:29.940Z,94823.47
2023-02-27T18:28:32.725Z,94825.53
2023-02-27T18:30:37.505Z,94833.22
2023-02-27T18:32:39.104Z,94831.84
2023-02-27T18:34:41.411Z,94827.88
2023-02-27T18:36:42.963Z,94828.69
2023-02-27T18:38:45.176Z,94824.59
2023-02-27T18:40:46.791Z,94819.91
2023-02-27T18:42:48.553Z,94832.53
2023-02-27T18:44:50.332Z,94838.66
2023-02-27T18:46:52.043Z,94831.38
2023-02-27T18:48:53.708Z,94832.31
2023-02-27T18:51:08.443Z,94836.97
2023-02-27T18:53:10.149Z,94835.28
2023-02-27T18:55:11.904Z,94832.56
2023-02-27T18:57:13.887Z,94835.25
2023-02-27T18:59:15.576Z,94837.03
2023-02-27T19:01:26.114Z,94830.38
2023-02-27T19:03:28.087Z,94826.69
2023-02-27T19:05:29.887Z,94833.78
2023-02-27T19:07:31.528Z,94850.50
2023-02-27T19:09:33.045Z,94866.88
2023-02-27T19:11:35.872Z,94869.78
2023-02-27T19:13:37.461Z,94877.50
2023-02-27T19:15:39.673Z,94873.38
2023-02-27T19:17:41.309Z,94870.63
2023-02-27T19:19:42.918Z,94865.72
2023-02-27T19:21:47.204Z,94863.13
2023-02-27T19:23:48.870Z,94862.72
2023-02-27T19:25:58.141Z,94873.53
2023-02-27T19:28:01.062Z,94872.63
2023-02-27T19:30:02.971Z,94868.06
2023-02-27T19:32:07.556Z,94875.00
2023-02-27T19:34:09.207Z,94886.34
2023-02-27T19:36:13.597Z,94894.53
2023-02-27T19:38:15.191Z,94892.09
2023-02-27T19:40:17.014Z,94897.66
2023-02-27T19:42:18.650Z,94908.03
2023-02-27T19:44:20.306Z,94901.34
2023-02-27T19:46:28.470Z,94894.59
2023-02-27T19:48:30.315Z,94896.00
2023-02-27T19:50:31.942Z,94890.06
2023-02-27T19:52:37.318Z,94901.91
2023-02-27T19:54:39.141Z,94913.84
2023-02-27T19:56:40.795Z,94913.53
2023-02-27T19:58:42.437Z,94907.44
2023-02-27T20:00:44.097Z,94915.75
2023-02-27T20:02:45.699Z,94925.34
2023-02-27T20:04:47.837Z,94931.06
2023-02-27T20:06:50.859Z,94930.88
2023-02-27T20:08:53.114Z,94938.31
2023-02-27T20:11:00.398Z,94931.88
2023-02-27T20:13:02.093Z,94948.03
2023-02-27T20:15:08.781Z,94961.94
2023-02-27T20:17:10.589Z,94967.25
2023-02-27T20:19:15.376Z,94964.94
2023-02-27T20:21:20.060Z,94960.84
2023-02-27T20:23:21.744Z,94951.34
2023-02-27T20:25:23.438Z,94950.19
2023-02-27T20:27:25.736Z,94949.34
2023-02-27T20:29:27.783Z,94955.59
2023-02-27T20:31:31.776Z,94963.34
2023-02-27T20:33:33.621Z,94962.22
2023-02-27T20:35:38.673Z,94959.47
2023-02-27T20:37:40.450Z,94965.00
2023-02-27T20:39:45.263Z,94953.22
2023-02-27T20:41:47.105Z,94951.94
2023-02-27T20:43:50.075Z,94946.56
2023-02-27T20:45:51.722Z,94953.31
2023-02-27T20:47:53.743Z,94968.44
2023-02-27T20:49:55.678Z,94973.00
2023-02-27T20:52:00.262Z,94973.81
2023-02-27T20:54:04.472Z,94983.59
2023-02-27T20:56:09.863Z,94990.03
2023-02-27T20:58:15.378Z,94979.59
2023-02-27T21:00:18.695Z,94979.47
2023-02-27T21:02:21.462Z,94986.44
2023-02-27T21:04:42.495Z,94986.59
2023-02-27T21:06:46.670Z,94990.53
2023-02-27T21:08:49.207Z,94996.56
2023-02-27T21:10:51.677Z,94999.03
2023-02-27T21:12:53.625Z,95007.75
2023-02-27T21:14:58.269Z,95000.47
2023-02-27T21:17:00.237Z,95006.56
2023-02-27T21:19:01.898Z,95006.25
2023-02-27T21:21:09.314Z,95004.88
2023-02-27T21:23:11.381Z,95012.41
2023-02-27T21:25:12.982Z,95027.91
2023-02-27T21:27:14.672Z,95038.66
2023-02-27T21:29:19.042Z,95044.81
2023-02-27T21:31:23.066Z,95038.66
2023-02-27T21:33:24.815Z,95058.41
2023-02-27T21:35:26.914Z,95049.94
2023-02-27T21:37:28.524Z,95053.53
2023-02-27T21:39:30.105Z,95051.84
2023-02-27T21:41:31.890Z,95052.75
2023-02-27T21:43:34.315Z,95057.97
2023-02-27T21:45:38.745Z,95052.75
2023-02-27T21:47:43.247Z,95053.97
2023-02-27T21:49:48.118Z,95055.53
2023-02-27T21:51:50.070Z,95050.31
2023-02-27T21:53:58.524Z,95044.25
2023-02-27T21:56:08.357Z,95043.44
2023-02-27T21:58:10.459Z,95041.72
2023-02-27T22:00:12.661Z,95022.72
2023-02-27T22:02:14.704Z,95014.28
2023-02-27T22:04:17.699Z,95016.09
2023-02-27T22:06:20.947Z,95004.88
2023-02-27T22:08:22.745Z,94994.56
2023-02-27T22:10:24.318Z,94990.97
2023-02-27T22:12:27.000Z,94989.31
2023-02-27T22:14:28.573Z,95003.22
2023-02-27T22:16:30.204Z,95016.47
2023-02-27T22:18:32.947Z,95014.06
2023-02-27T22:20:39.605Z,95028.03
2023-02-27T22:22:41.231Z,95031.06
2023-02-27T22:24:43.036Z,95031.47
2023-02-27T22:26:45.809Z,95041.38
2023-02-27T22:28:47.754Z,95037.72
2023-02-27T22:30:49.376Z,95036.78
2023-02-27T22:32:50.949Z,95035.28
2023-02-27T22:34:52.799Z,95039.44
2023-02-27T22:36:54.487Z,95051.53
2023-02-27T22:38:56.490Z,95053.59
2023-02-27T22:41:09.893Z,95057.44
2023-02-27T22:43:11.823Z,95055.25
2023-02-27T22:45:19.519Z,95056.47
2023-02-27T22:47:21.164Z,95047.03
2023-02-27T22:49:23.703Z,95046.91
2023-02-27T22:51:30.661Z,95056.25
2023-02-27T22:53:38.240Z,95061.22
2023-02-27T22:55:39.892Z,95059.56
2023-02-27T22:57:41.609Z,95055.88
2023-02-27T22:59:43.288Z,95050.47
2023-02-27T23:01:44.987Z,95045.69
2023-02-27T23:03:48.124Z,95050.06
2023-02-27T23:05:50.163Z,95055.56
2023-02-27T23:07:51.830Z,95056.13
2023-02-27T23:09:53.602Z,95056.25
2023-02-27T23:11:55.836Z,95065.06
2023-02-27T23:13:57.498Z,95062.56
2023-02-27T23:16:00.171Z,95056.53
2023-02-27T23:18:01.790Z,95058.72
2023-02-27T23:20:04.471Z,95063.41
2023-02-27T23:22:06.044Z,95058.84
2023-02-27T23:24:10.515Z,95061.75
2023-02-27T23:26:12.829Z,95062.44
2023-02-27T23:28:14.474Z,95066.00
2023-02-27T23:30:22.449Z,95064.38
2023-02-27T23:32:24.767Z,95071.38
2023-02-27T23:34:40.602Z,95058.59
2023-02-27T23:36:49.629Z,95065.28
2023-02-27T23:38:51.251Z,95060.75
2023-02-27T23:40:53.109Z,95064.06
2023-02-27T23:42:54.796Z,95055.41
2023-02-27T23:44:56.372Z,95058.72
2023-02-27T23:46:58.068Z,95063.25
2023-02-27T23:49:00.952Z,95067.50
2023-02-27T23:51:03.889Z,95070.69
2023-02-27T23:53:06.680Z,95073.84
2023-02-27T23:55:09.137Z,95064.38
2023-02-27T23:57:10.730Z,95061.19
2023-02-27T23:59:12.371Z,95074.25
